Time;durP1;ratioP1;P1;durP2;ratioP2;P2;SDS_P1;SDS_P2;PMS_P1;PMS_P2;Temp;Humidity;BMP_temperature;BMP_pressure;BME280_temperature;BME280_humidity;BME280_pressure;Samples;Min_cycle;Max_cycle;Signal;HPM_P1;HPM_P2
2021/03/23 00:00:43;;;;;;;17.20;3.17;;;5.00;99.90;;;;;;5092937;28;20016;-76
2021/03/23 00:03:16;;;;;;;24.23;4.88;;;5.00;99.90;;;;;;5092277;28;20024;-77
2021/03/23 00:05:42;;;;;;;21.50;4.38;;;5.00;99.90;;;;;;5090727;28;20023;-76
2021/03/23 00:08:26;;;;;;;17.45;4.47;;;4.90;99.90;;;;;;5092646;28;20024;-77
2021/03/23 00:10:53;;;;;;;18.83;4.88;;;5.00;99.90;;;;;;5091447;28;20130;-77
2021/03/23 00:13:19;;;;;;;23.27;4.25;;;4.90;99.90;;;;;;5091272;28;20031;-77
2021/03/23 00:15:45;;;;;;;18.98;4.88;;;4.90;99.90;;;;;;5091980;28;20107;-76
2021/03/23 00:18:11;;;;;;;33.10;5.88;;;4.90;99.90;;;;;;5092619;28;20066;-77
2021/03/23 00:20:38;;;;;;;23.30;4.82;;;4.80;99.90;;;;;;5092543;28;20032;-77
2021/03/23 00:23:04;;;;;;;19.17;5.82;;;4.80;99.90;;;;;;5092543;28;20067;-77
2021/03/23 00:25:30;;;;;;;20.55;5.72;;;4.90;99.90;;;;;;5090045;28;20020;-76
2021/03/23 00:27:55;;;;;;;34.53;7.05;;;4.80;99.90;;;;;;5092384;28;20031;-77
2021/03/23 00:30:21;;;;;;;22.15;6.55;;;4.90;99.90;;;;;;5092372;28;20034;-76
2021/03/23 00:32:47;;;;;;;22.95;6.60;;;4.90;99.90;;;;;;5092321;28;20383;-77
2021/03/23 00:35:13;;;;;;;30.63;6.45;;;4.90;99.90;;;;;;5091453;28;20105;-77
2021/03/23 00:37:40;;;;;;;21.23;6.47;;;4.90;99.90;;;;;;5090865;28;20069;-76
2021/03/23 00:40:09;;;;;;;21.73;5.85;;;4.90;99.90;;;;;;5092138;28;20034;-76
2021/03/23 00:42:35;;;;;;;41.83;8.50;;;5.00;99.90;;;;;;5111608;28;20117;-76
2021/03/23 00:45:01;;;;;;;26.85;5.57;;;5.00;99.90;;;;;;5111813;28;20541;-76
2021/03/23 00:47:27;;;;;;;25.85;7.07;;;5.00;99.90;;;;;;5112429;28;20043;-76
2021/03/23 00:49:52;;;;;;;16.05;5.20;;;5.00;99.90;;;;;;5112382;28;20054;-77
2021/03/23 00:52:18;;;;;;;39.90;5.80;;;5.00;99.90;;;;;;5098311;28;20066;-76
2021/03/23 00:54:44;;;;;;;36.42;5.97;;;5.10;99.90;;;;;;5091258;28;20048;-77
2021/03/23 00:57:09;;;;;;;21.38;5.28;;;5.10;99.90;;;;;;5090903;28;20055;-76
2021/03/23 00:59:35;;;;;;;17.85;4.68;;;5.10;99.90;;;;;;5091938;28;20039;-77
2021/03/23 01:02:00;;;;;;;17.65;5.68;;;5.10;99.90;;;;;;5090493;28;20392;-76
2021/03/23 01:04:26;;;;;;;20.25;4.25;;;5.10;99.90;;;;;;5091126;28;20384;-77
2021/03/23 01:06:51;;;;;;;23.70;4.25;;;5.10;99.90;;;;;;5090399;28;20017;-76
2021/03/23 01:09:17;;;;;;;23.35;5.10;;;5.00;99.90;;;;;;5090576;28;20035;-76
2021/03/23 01:11:42;;;;;;;27.10;4.95;;;5.00;99.90;;;;;;5104941;28;20032;-76
2021/03/23 01:14:08;;;;;;;30.23;3.95;;;5.00;99.90;;;;;;5111406;28;20028;-77
2021/03/23 01:16:33;;;;;;;28.92;4.43;;;5.00;99.90;;;;;;5111834;28;20054;-76
2021/03/23 01:19:00;;;;;;;26.73;4.50;;;5.00;99.90;;;;;;5111946;28;20035;-76
2021/03/23 01:21:26;;;;;;;23.98;4.65;;;5.00;99.90;;;;;;5103532;28;20418;-76
2021/03/23 01:23:51;;;;;;;14.75;5.13;;;5.10;99.90;;;;;;5089796;28;20432;-77
2021/03/23 01:26:17;;;;;;;16.77;4.78;;;5.00;99.90;;;;;;5091600;28;20118;-76
2021/03/23 01:28:43;;;;;;;29.27;5.32;;;5.10;99.90;;;;;;5090257;28;20107;-76
2021/03/23 01:31:08;;;;;;;30.25;5.85;;;5.10;99.90;;;;;;5093982;28;20524;-76
2021/03/23 01:33:34;;;;;;;26.20;6.13;;;5.10;99.90;;;;;;5111862;28;20480;-76
2021/03/23 01:35:59;;;;;;;21.23;5.55;;;5.10;99.90;;;;;;5111160;28;20088;-76
2021/03/23 01:38:25;;;;;;;24.33;6.53;;;5.00;99.90;;;;;;5111860;28;20030;-77
2021/03/23 01:40:51;;;;;;;30.27;7.55;;;5.00;99.90;;;;;;5104012;28;20039;-76
2021/03/23 01:43:24;;;;;;;30.52;8.93;;;5.00;99.90;;;;;;5090354;28;20020;-76
2021/03/23 01:45:50;;;;;;;28.88;8.50;;;5.00;99.90;;;;;;5089637;28;20411;-77
2021/03/23 01:48:32;;;;;;;24.88;8.77;;;5.00;99.90;;;;;;5091467;28;20055;-76
2021/03/23 01:51:04;;;;;;;27.75;9.65;;;5.00;99.90;;;;;;5091472;28;20099;-76
2021/03/23 01:53:43;;;;;;;34.88;11.98;;;5.00;99.90;;;;;;5091329;28;20028;-76
2021/03/23 01:56:10;;;;;;;38.58;10.82;;;5.00;99.90;;;;;;5089976;28;20032;-76
2021/03/23 01:58:39;;;;;;;36.85;10.73;;;5.00;99.90;;;;;;5089302;28;20119;-76
2021/03/23 02:01:07;;;;;;;27.70;11.07;;;5.00;99.90;;;;;;5090951;28;20024;-76
2021/03/23 02:03:33;;;;;;;36.90;14.55;;;5.00;99.90;;;;;;5089832;28;20020;-76
2021/03/23 02:06:00;;;;;;;39.85;14.38;;;5.00;99.90;;;;;;5089060;28;20058;-76
2021/03/23 02:08:26;;;;;;;37.92;14.43;;;5.00;99.90;;;;;;5091276;28;20070;-76
2021/03/23 02:10:53;;;;;;;40.63;15.07;;;5.00;99.90;;;;;;5089537;28;20024;-76
2021/03/23 02:13:20;;;;;;;46.78;15.40;;;5.00;99.90;;;;;;5090972;28;20035;-76
2021/03/23 02:15:45;;;;;;;40.40;16.05;;;5.00;99.90;;;;;;5088977;28;20505;-76
2021/03/23 02:18:21;;;;;;;47.47;17.88;;;5.00;99.90;;;;;;5091253;28;20109;-76
2021/03/23 02:21:08;;;;;;;44.05;16.42;;;5.00;99.90;;;;;;5090644;28;20476;-76
2021/03/23 02:23:39;;;;;;;48.45;16.73;;;5.00;99.90;;;;;;5091000;28;20480;-76
2021/03/23 02:26:08;;;;;;;40.78;16.70;;;5.00;99.90;;;;;;5090407;28;20020;-76
2021/03/23 02:28:55;;;;;;;53.33;17.52;;;5.00;99.90;;;;;;5094302;28;20024;-76
2021/03/23 02:31:51;;;;;;;48.92;19.90;;;5.00;99.90;;;;;;5093273;28;20027;-76
2021/03/23 02:34:21;;;;;;;53.03;18.10;;;5.00;99.90;;;;;;5080136;28;20050;-76
2021/03/23 02:36:48;;;;;;;67.45;20.52;;;5.00;99.90;;;;;;5094437;28;20039;-76
2021/03/23 02:39:20;;;;;;;54.75;20.55;;;5.00;99.90;;;;;;5093222;28;21912;-76
2021/03/23 02:41:45;;;;;;;58.60;21.25;;;5.00;99.90;;;;;;5094523;28;20032;-77
2021/03/23 02:44:11;;;;;;;53.47;20.33;;;5.00;99.90;;;;;;5093539;28;20031;-77
2021/03/23 02:46:37;;;;;;;64.40;20.98;;;5.00;99.90;;;;;;5093191;28;20023;-76
2021/03/23 02:49:04;;;;;;;55.78;20.23;;;5.00;99.90;;;;;;5094174;28;20028;-76
2021/03/23 02:51:29;;;;;;;49.67;16.80;;;4.90;99.90;;;;;;5114131;28;20414;-76
2021/03/23 02:53:55;;;;;;;43.15;16.70;;;4.90;99.90;;;;;;5112601;28;20130;-76
2021/03/23 02:56:20;;;;;;;35.25;16.02;;;4.90;99.90;;;;;;5103981;28;20107;-77
2021/03/23 02:58:46;;;;;;;47.92;16.58;;;4.90;99.90;;;;;;5093952;28;20028;-76
2021/03/23 03:01:13;;;;;;;38.55;14.60;;;4.90;99.90;;;;;;5093974;28;20028;-77
2021/03/23 03:03:39;;;;;;;35.60;14.45;;;4.90;99.90;;;;;;5093486;28;20023;-76
2021/03/23 03:06:06;;;;;;;35.40;12.15;;;4.80;99.90;;;;;;5093538;28;20494;-76
2021/03/23 03:08:32;;;;;;;40.47;12.07;;;4.80;99.90;;;;;;5094042;28;20394;-76
2021/03/23 03:10:57;;;;;;;28.52;10.52;;;4.80;99.90;;;;;;5092420;28;20028;-76
2021/03/23 03:13:24;;;;;;;31.00;10.43;;;4.80;99.90;;;;;;5093662;28;20521;-76
2021/03/23 03:15:54;;;;;;;25.42;9.02;;;4.90;99.90;;;;;;5093054;28;20055;-76
2021/03/23 03:18:22;;;;;;;29.10;8.98;;;4.80;99.90;;;;;;5093700;28;20451;-76
2021/03/23 03:20:48;;;;;;;33.88;9.40;;;4.80;99.90;;;;;;5099743;28;20077;-76
2021/03/23 03:23:14;;;;;;;26.80;9.18;;;4.80;99.90;;;;;;5114103;28;20023;-76
2021/03/23 03:25:39;;;;;;;34.97;10.13;;;4.80;99.90;;;;;;5107405;28;20556;-76
2021/03/23 03:28:07;;;;;;;28.55;8.30;;;4.80;99.90;;;;;;5093376;28;20024;-76
2021/03/23 03:30:34;;;;;;;35.50;8.15;;;4.90;99.90;;;;;;5093338;28;20027;-76
2021/03/23 03:33:00;;;;;;;23.67;8.00;;;4.90;99.90;;;;;;5093429;28;20027;-76
2021/03/23 03:35:28;;;;;;;26.95;8.13;;;4.80;99.90;;;;;;5092482;28;20051;-76
2021/03/23 03:37:54;;;;;;;28.25;7.10;;;4.90;99.90;;;;;;5093200;28;20031;-76
2021/03/23 03:40:33;;;;;;;28.45;8.00;;;4.90;99.90;;;;;;5092095;28;20020;-76
2021/03/23 03:42:58;;;;;;;29.95;7.95;;;4.90;99.90;;;;;;5091904;28;20085;-76
2021/03/23 03:45:25;;;;;;;26.05;8.23;;;4.90;99.90;;;;;;5092391;28;20032;-76
2021/03/23 03:47:55;;;;;;;24.67;8.05;;;4.90;99.90;;;;;;5093139;28;20016;-76
2021/03/23 03:50:22;;;;;;;27.90;7.90;;;4.90;99.90;;;;;;5091689;28;20020;-76
2021/03/23 03:52:49;;;;;;;29.80;7.47;;;4.90;99.90;;;;;;5091427;28;20050;-76
2021/03/23 03:55:16;;;;;;;26.88;7.50;;;4.90;99.90;;;;;;5092370;28;20020;-76
2021/03/23 03:57:41;;;;;;;22.65;7.35;;;4.90;99.90;;;;;;5091515;28;20020;-76
2021/03/23 04:00:08;;;;;;;24.70;8.13;;;4.90;99.90;;;;;;5091854;28;20391;-76
2021/03/23 04:02:34;;;;;;;19.85;6.28;;;4.90;99.90;;;;;;5106749;28;20110;-76
2021/03/23 04:04:59;;;;;;;25.63;6.90;;;4.90;99.90;;;;;;5112481;28;20108;-76
2021/03/23 04:07:25;;;;;;;23.30;6.80;;;4.90;99.90;;;;;;5113178;28;20019;-76
2021/03/23 04:09:50;;;;;;;18.30;6.53;;;4.90;99.90;;;;;;5113240;28;20050;-76
2021/03/23 04:12:16;;;;;;;12.13;6.15;;;4.90;99.90;;;;;;5094897;28;20032;-76
2021/03/23 04:14:41;;;;;;;19.02;6.80;;;4.90;99.90;;;;;;5092026;28;20046;-76
2021/03/23 04:17:07;;;;;;;23.70;5.75;;;4.90;99.90;;;;;;5092709;28;20089;-76
2021/03/23 04:19:33;;;;;;;33.72;6.65;;;5.00;99.90;;;;;;5092417;28;20036;-76
2021/03/23 04:21:58;;;;;;;24.55;7.40;;;4.90;99.90;;;;;;5093612;28;20533;-76
2021/03/23 04:24:24;;;;;;;19.20;6.13;;;4.90;99.90;;;;;;5091863;28;20020;-76
2021/03/23 04:26:50;;;;;;;23.58;6.82;;;4.90;99.90;;;;;;5092340;28;20031;-76
2021/03/23 04:29:16;;;;;;;23.55;6.30;;;4.90;99.90;;;;;;5091130;28;20042;-76
2021/03/23 04:31:43;;;;;;;23.15;6.88;;;4.90;99.90;;;;;;5092198;28;20021;-76
2021/03/23 04:34:11;;;;;;;15.70;5.90;;;4.90;99.90;;;;;;5091705;28;20016;-76
2021/03/23 04:36:37;;;;;;;24.45;6.70;;;4.90;99.90;;;;;;5091145;28;20480;-76
2021/03/23 04:39:09;;;;;;;21.58;7.07;;;5.00;99.90;;;;;;5092389;28;20031;-76
2021/03/23 04:41:35;;;;;;;30.38;8.07;;;5.00;99.90;;;;;;5090707;28;20024;-76
2021/03/23 04:44:01;;;;;;;30.67;9.05;;;5.00;99.90;;;;;;5090227;28;20026;-76
2021/03/23 04:46:28;;;;;;;23.88;7.70;;;5.00;99.90;;;;;;5090863;28;20024;-76
2021/03/23 04:48:55;;;;;;;18.15;6.80;;;4.90;99.90;;;;;;5092138;28;20012;-76
2021/03/23 04:51:23;;;;;;;21.85;7.15;;;4.90;99.90;;;;;;5090564;28;20069;-76
2021/03/23 04:53:49;;;;;;;18.33;7.10;;;4.90;99.90;;;;;;5090059;28;20024;-76
2021/03/23 04:56:24;;;;;;;23.58;5.97;;;4.90;99.90;;;;;;5090667;28;20186;-76
2021/03/23 04:58:50;;;;;;;23.20;6.38;;;4.90;99.90;;;;;;5092003;28;20038;-76
2021/03/23 05:01:16;;;;;;;16.90;6.95;;;4.90;99.90;;;;;;5095064;28;20035;-76
2021/03/23 05:03:42;;;;;;;18.42;6.18;;;4.90;99.90;;;;;;5110496;28;20032;-76
2021/03/23 05:06:09;;;;;;;28.23;7.72;;;4.90;99.90;;;;;;5110850;28;20023;-76
2021/03/23 05:08:37;;;;;;;25.33;6.18;;;4.90;99.90;;;;;;5112215;28;20018;-76
2021/03/23 05:11:04;;;;;;;15.60;5.47;;;4.90;99.90;;;;;;5104479;28;20072;-76
2021/03/23 05:13:30;;;;;;;35.53;6.47;;;4.90;99.90;;;;;;5091966;28;20067;-76
2021/03/23 05:15:55;;;;;;;28.23;6.35;;;4.90;99.90;;;;;;5090937;28;20288;-76
2021/03/23 05:18:21;;;;;;;33.38;6.20;;;4.90;99.90;;;;;;5091760;28;20395;-76
2021/03/23 05:20:47;;;;;;;29.25;6.97;;;4.90;99.90;;;;;;5093427;28;20032;-76
2021/03/23 05:23:13;;;;;;;24.85;6.18;;;4.90;99.90;;;;;;5110730;28;20024;-76
2021/03/23 05:25:40;;;;;;;17.00;4.63;;;4.90;99.90;;;;;;5105686;28;20114;-76
2021/03/23 05:28:05;;;;;;;30.73;6.35;;;4.90;99.90;;;;;;5091589;28;20035;-76
2021/03/23 05:30:31;;;;;;;19.15;6.72;;;4.90;99.90;;;;;;5091640;28;20028;-76
2021/03/23 05:32:57;;;;;;;28.92;6.93;;;4.90;99.90;;;;;;5091391;28;20373;-76
2021/03/23 05:35:22;;;;;;;16.40;5.15;;;4.90;99.90;;;;;;5090851;28;20032;-76
2021/03/23 05:37:48;;;;;;;19.63;5.63;;;4.90;99.90;;;;;;5091481;28;20110;-76
2021/03/23 05:40:22;;;;;;;18.20;5.43;;;4.80;99.90;;;;;;5091628;28;20127;-76
2021/03/23 05:43:05;;;;;;;16.92;5.45;;;4.90;99.90;;;;;;5111884;28;20051;-76
2021/03/23 05:45:40;;;;;;;18.15;5.53;;;4.90;99.90;;;;;;5111105;28;20050;-76
2021/03/23 05:48:22;;;;;;;14.77;5.18;;;4.90;99.90;;;;;;5111637;28;20035;-76
2021/03/23 05:51:06;;;;;;;32.55;6.50;;;4.90;99.90;;;;;;5109197;28;20032;-76
2021/03/23 05:53:40;;;;;;;17.02;5.85;;;4.90;99.90;;;;;;5090103;28;20483;-76
2021/03/23 05:56:06;;;;;;;11.27;5.35;;;4.90;99.90;;;;;;5089749;28;20035;-76
2021/03/23 05:58:39;;;;;;;16.33;5.18;;;4.90;99.90;;;;;;5090031;28;20097;-76
2021/03/23 06:01:29;;;;;;;17.98;5.68;;;4.90;99.90;;;;;;5092840;28;20032;-76
2021/03/23 06:04:25;;;;;;;13.98;5.50;;;5.00;99.90;;;;;;5114919;28;20020;-76
2021/03/23 06:07:02;;;;;;;19.85;6.03;;;5.00;99.90;;;;;;5115639;28;20026;-76
2021/03/23 06:09:33;;;;;;;14.25;5.40;;;5.00;99.90;;;;;;5114257;28;20027;-76
2021/03/23 06:12:12;;;;;;;21.17;5.57;;;5.00;99.90;;;;;;5098582;28;20032;-76
2021/03/23 06:14:55;;;;;;;18.20;5.82;;;5.00;99.90;;;;;;5094335;28;20475;-76
2021/03/23 06:17:41;;;;;;;11.48;5.90;;;5.00;99.90;;;;;;5094953;28;20341;-76
2021/03/23 06:20:19;;;;;;;11.57;4.07;;;5.00;99.90;;;;;;5094835;28;20061;-76
2021/03/23 06:23:02;;;;;;;10.60;5.20;;;5.00;99.90;;;;;;5113233;28;20081;-76
2021/03/23 06:25:41;;;;;;;9.38;5.00;;;5.00;99.90;;;;;;5111659;28;20039;-76
2021/03/23 06:28:28;;;;;;;18.35;5.18;;;5.00;99.90;;;;;;5094858;28;20437;-76
2021/03/23 06:31:00;;;;;;;14.45;4.78;;;5.10;99.90;;;;;;5093537;28;20135;-76
2021/03/23 06:33:28;;;;;;;13.25;4.90;;;5.10;99.90;;;;;;5094646;28;20039;-75
2021/03/23 06:35:57;;;;;;;14.68;4.95;;;5.00;99.90;;;;;;5100799;28;20049;-76
2021/03/23 06:38:36;;;;;;;24.40;4.53;;;5.10;99.90;;;;;;5110396;28;20061;-76
2021/03/23 06:41:09;;;;;;;15.95;5.32;;;5.10;99.90;;;;;;5110840;28;20028;-77
2021/03/23 06:43:36;;;;;;;14.38;4.53;;;5.20;99.90;;;;;;5111220;28;20510;-76
2021/03/23 06:46:05;;;;;;;14.00;4.75;;;5.20;99.90;;;;;;5108968;28;20157;-77
2021/03/23 06:48:33;;;;;;;10.35;4.50;;;5.20;99.90;;;;;;5111079;28;20504;-77
2021/03/23 06:51:14;;;;;;;14.60;4.20;;;5.20;99.90;;;;;;5108152;27;20032;-77
2021/03/23 06:53:41;;;;;;;18.33;4.70;;;5.30;99.90;;;;;;5109376;28;20032;-76
2021/03/23 06:56:17;;;;;;;10.75;4.22;;;5.30;99.90;;;;;;5106788;27;20772;-76
2021/03/23 06:58:43;;;;;;;12.13;4.28;;;5.30;99.90;;;;;;5114729;27;20036;-76
2021/03/23 07:01:19;;;;;;;12.32;4.07;;;5.30;99.90;;;;;;5114967;27;20039;-76
2021/03/23 07:03:48;;;;;;;18.88;3.88;;;5.40;99.90;;;;;;5110119;27;20411;-76
2021/03/23 07:06:30;;;;;;;11.27;4.57;;;5.30;99.90;;;;;;5108890;27;20019;-75
2021/03/23 07:09:22;;;;;;;6.13;3.85;;;5.40;99.90;;;;;;5110980;28;20046;-76
2021/03/23 07:11:53;;;;;;;13.10;3.58;;;5.40;99.90;;;;;;5105720;28;20518;-76
2021/03/23 07:14:32;;;;;;;9.40;3.85;;;5.50;99.90;;;;;;5109656;28;20035;-75
2021/03/23 07:17:11;;;;;;;14.85;4.53;;;5.50;99.90;;;;;;5121220;27;20490;-75
2021/03/23 07:19:47;;;;;;;8.25;3.97;;;5.50;99.90;;;;;;5110358;27;20038;-75
2021/03/23 07:22:21;;;;;;;10.05;3.55;;;5.50;99.90;;;;;;5114544;27;20071;-76
2021/03/23 07:24:56;;;;;;;17.15;3.83;;;5.60;99.90;;;;;;5109546;28;20027;-75
2021/03/23 07:27:25;;;;;;;9.50;3.97;;;5.60;99.90;;;;;;5109234;27;20029;-75
2021/03/23 07:29:50;;;;;;;13.00;4.10;;;5.60;99.90;;;;;;5113475;27;20047;-75
2021/03/23 07:32:45;;;;;;;8.02;3.53;;;5.60;99.90;;;;;;5102565;28;20605;-76
2021/03/23 07:35:35;;;;;;;10.88;3.60;;;5.60;99.90;;;;;;5108533;27;20020;-76
2021/03/23 07:38:19;;;;;;;13.98;3.75;;;5.60;99.90;;;;;;5109752;27;20136;-75
2021/03/23 07:40:47;;;;;;;9.85;3.65;;;5.70;99.90;;;;;;5103419;28;20077;-75
2021/03/23 07:43:50;;;;;;;8.18;3.90;;;5.60;99.90;;;;;;5101220;28;20110;-75
2021/03/23 07:46:38;;;;;;;10.02;4.38;;;5.60;99.90;;;;;;5108896;28;20020;-76
2021/03/23 07:49:22;;;;;;;15.48;5.55;;;5.60;99.90;;;;;;5110144;27;20054;-76
2021/03/23 07:52:06;;;;;;;;;;;5.60;99.90;;;;;;5109591;28;20069;-76
2021/03/23 07:54:37;;;;;;;10.82;3.70;;;5.70;99.90;;;;;;5109449;28;19907;-76
2021/03/23 07:57:48;;;;;;;13.88;4.50;;;5.70;99.90;;;;;;5103349;28;20403;-76
2021/03/23 08:00:35;;;;;;;10.50;3.92;;;5.90;99.90;;;;;;5108539;28;20024;-75
2021/03/23 08:03:32;;;;;;;9.63;3.92;;;5.90;99.90;;;;;;5105501;28;20024;-76
2021/03/23 08:06:13;;;;;;;9.43;3.83;;;6.10;99.90;;;;;;5109022;28;20060;-76
2021/03/23 08:09:00;;;;;;;9.57;3.30;;;6.10;99.90;;;;;;5109765;28;20131;-77
2021/03/23 08:11:58;;;;;;;6.72;2.80;;;6.10;99.90;;;;;;5101964;28;20103;-77
2021/03/23 08:14:23;;;;;;;6.53;3.67;;;6.10;99.90;;;;;;5091918;28;20400;-77
2021/03/23 08:17:16;;;;;;;10.85;3.83;;;6.20;99.90;;;;;;5092581;28;20035;-77
2021/03/23 08:19:59;;;;;;;12.70;3.63;;;6.20;99.90;;;;;;5092519;28;20074;-77
2021/03/23 08:22:40;;;;;;;4.93;3.53;;;6.30;99.90;;;;;;5090838;28;20023;-77
2021/03/23 08:25:39;;;;;;;8.20;3.53;;;6.30;99.90;;;;;;5091053;28;20433;-77
2021/03/23 08:28:25;;;;;;;6.10;3.17;;;6.30;99.90;;;;;;5092496;28;20442;-77
2021/03/23 08:30:51;;;;;;;15.73;5.13;;;6.30;99.90;;;;;;5091089;28;20028;-77
2021/03/23 08:33:54;;;;;;;11.93;4.15;;;6.30;99.90;;;;;;5090937;28;20069;-77
2021/03/23 08:36:43;;;;;;;15.18;4.07;;;6.30;99.90;;;;;;5092124;28;20115;-77
2021/03/23 08:39:27;;;;;;;17.42;5.75;;;6.30;99.90;;;;;;5090759;28;20028;-78
2021/03/23 08:42:00;;;;;;;11.52;5.20;;;6.30;99.90;;;;;;5105994;28;20047;-78
2021/03/23 08:45:11;;;;;;;14.95;5.97;;;6.30;99.90;;;;;;5110637;28;20026;-78
2021/03/23 08:47:49;;;;;;;13.68;6.03;;;6.30;99.90;;;;;;5092227;28;20032;-78
2021/03/23 08:50:15;;;;;;;23.70;7.15;;;6.30;99.90;;;;;;5111154;28;20023;-78
2021/03/23 08:52:48;;;;;;;20.25;6.30;;;6.30;99.90;;;;;;5094149;28;20055;-77
2021/03/23 08:55:30;;;;;;;14.75;6.22;;;6.30;99.90;;;;;;5089769;28;20031;-78
2021/03/23 08:58:01;;;;;;;17.85;5.82;;;6.30;99.90;;;;;;5092033;28;20020;-77
2021/03/23 09:00:35;;;;;;;21.55;6.70;;;6.30;99.90;;;;;;5091852;28;20103;-78
2021/03/23 09:03:12;;;;;;;12.60;5.35;;;6.30;99.90;;;;;;5109552;28;20388;-78
2021/03/23 09:05:44;;;;;;;17.42;6.30;;;6.40;99.90;;;;;;5111310;28;20024;-79
2021/03/23 09:08:35;;;;;;;16.88;6.43;;;6.40;99.90;;;;;;5112046;28;20031;-77
2021/03/23 09:11:11;;;;;;;19.40;6.50;;;6.50;99.90;;;;;;5103554;28;20052;-77
2021/03/23 09:13:36;;;;;;;15.27;6.43;;;6.50;99.90;;;;;;5091553;28;20058;-77
2021/03/23 09:16:05;;;;;;;17.65;6.72;;;6.70;99.90;;;;;;5091225;28;20027;-77
2021/03/23 09:18:34;;;;;;;10.40;6.47;;;6.60;99.90;;;;;;5092135;28;20031;-76
2021/03/23 09:21:05;;;;;;;16.27;6.97;;;6.60;99.90;;;;;;5094545;28;20032;-76
2021/03/23 09:23:37;;;;;;;14.77;6.18;;;6.70;99.90;;;;;;5109085;28;20035;-76
2021/03/23 09:26:24;;;;;;;16.90;7.05;;;6.90;99.90;;;;;;5100047;28;20396;-76
2021/03/23 09:28:53;;;;;;;23.13;6.03;;;6.80;99.90;;;;;;5106624;28;20035;-75
2021/03/23 09:31:24;;;;;;;18.40;7.85;;;6.90;99.90;;;;;;5107279;28;20851;-74
2021/03/23 09:33:51;;;;;;;27.42;7.20;;;6.90;99.90;;;;;;5106543;28;20067;-75
2021/03/23 09:36:23;;;;;;;21.15;7.70;;;6.80;99.90;;;;;;5106893;28;20081;-76
2021/03/23 09:38:51;;;;;;;19.05;6.88;;;6.90;99.90;;;;;;5112857;28;20052;-76
2021/03/23 09:41:20;;;;;;;21.50;7.80;;;6.90;99.90;;;;;;5105157;28;20042;-77
2021/03/23 09:43:48;;;;;;;22.77;7.10;;;6.90;99.90;;;;;;5112138;28;20122;-76
2021/03/23 09:46:22;;;;;;;24.85;9.75;;;6.90;99.90;;;;;;5110978;28;20067;-76
2021/03/23 09:48:56;;;;;;;23.60;7.60;;;6.90;99.90;;;;;;5111351;28;20058;-76
2021/03/23 09:51:21;;;;;;;27.15;7.80;;;7.00;99.90;;;;;;5112616;28;20032;-76
2021/03/23 09:53:47;;;;;;;21.15;8.15;;;7.10;99.90;;;;;;5118492;27;20027;-76
2021/03/23 09:56:18;;;;;;;21.20;7.93;;;7.10;99.90;;;;;;5105707;28;20043;-75
2021/03/23 09:58:44;;;;;;;24.90;9.13;;;7.20;99.90;;;;;;5108055;28;20027;-76
2021/03/23 10:01:21;;;;;;;22.48;8.45;;;7.20;99.90;;;;;;5111796;28;20024;-76
2021/03/23 10:03:50;;;;;;;24.80;9.63;;;7.30;99.90;;;;;;5108362;28;20059;-76
2021/03/23 10:06:23;;;;;;;16.67;9.30;;;7.50;99.90;;;;;;5110946;28;20479;-76
2021/03/23 10:09:01;;;;;;;22.17;9.40;;;7.70;99.90;;;;;;5112189;28;20028;-76
2021/03/23 10:11:38;;;;;;;26.15;8.98;;;7.80;99.90;;;;;;5109684;28;20080;-75
2021/03/23 10:14:11;;;;;;;21.73;10.00;;;7.80;99.90;;;;;;5110313;28;20024;-75
2021/03/23 10:16:42;;;;;;;27.00;10.40;;;7.80;99.90;;;;;;5104757;28;20020;-75
2021/03/23 10:19:23;;;;;;;26.35;9.93;;;7.90;99.90;;;;;;5112618;28;20080;-75
2021/03/23 10:21:51;;;;;;;26.17;10.63;;;7.90;99.90;;;;;;5103880;28;20085;-76
2021/03/23 10:24:25;;;;;;;28.35;10.48;;;8.00;99.90;;;;;;5110065;28;20016;-75
2021/03/23 10:26:53;;;;;;;30.83;10.98;;;8.00;99.90;;;;;;5103310;28;20090;-75
2021/03/23 10:29:24;;;;;;;28.33;10.43;;;8.00;99.90;;;;;;5110363;28;20376;-75
2021/03/23 10:31:52;;;;;;;22.45;11.38;;;7.90;99.90;;;;;;5111711;28;20446;-74
2021/03/23 10:34:23;;;;;;;31.25;11.57;;;7.80;99.90;;;;;;5111231;28;20384;-75
2021/03/23 10:36:51;;;;;;;31.65;11.73;;;7.90;99.90;;;;;;5105042;28;20514;-75
2021/03/23 10:39:43;;;;;;;35.90;11.80;;;7.80;99.90;;;;;;5108290;28;20039;-75
2021/03/23 10:42:35;;;;;;;30.83;12.52;;;7.70;99.90;;;;;;5110963;28;20103;-76
2021/03/23 10:45:25;;;;;;;30.20;12.07;;;7.50;99.90;;;;;;5108902;28;20747;-76
2021/03/23 10:48:24;;;;;;;28.88;11.95;;;7.50;99.90;;;;;;5103489;28;20035;-76
2021/03/23 10:51:08;;;;;;;36.95;13.48;;;7.40;99.90;;;;;;5111343;28;20138;-76
2021/03/23 10:53:34;;;;;;;35.95;14.10;;;7.50;99.90;;;;;;5109836;28;20027;-75
2021/03/23 10:55:59;;;;;;;38.10;13.48;;;7.50;99.90;;;;;;5103406;28;20040;-74
2021/03/23 10:58:27;;;;;;;34.90;15.32;;;7.50;99.90;;;;;;5113721;27;20085;-76
2021/03/23 11:00:59;;;;;;;35.10;13.60;;;7.60;99.90;;;;;;5108846;28;20027;-76
2021/03/23 11:03:33;;;;;;;38.35;14.90;;;7.50;99.90;;;;;;5110967;28;20403;-75
2021/03/23 11:06:01;;;;;;;29.58;14.25;;;7.50;99.90;;;;;;5110152;27;20028;-76
2021/03/23 11:08:28;;;;;;;42.65;15.60;;;7.50;99.90;;;;;;5111210;28;20024;-75
2021/03/23 11:10:59;;;;;;;34.63;14.85;;;7.60;99.90;;;;;;5103677;28;20330;-75
2021/03/23 11:13:25;;;;;;;37.25;16.50;;;7.50;99.90;;;;;;5109682;28;20039;-76
2021/03/23 11:15:56;;;;;;;41.25;17.75;;;7.60;99.90;;;;;;5109194;28;20035;-76
2021/03/23 11:18:30;;;;;;;41.45;16.38;;;7.50;99.90;;;;;;5110814;28;20031;-76
2021/03/23 11:21:02;;;;;;;43.15;16.92;;;7.60;99.90;;;;;;5111082;28;20223;-74
2021/03/23 11:23:36;;;;;;;36.50;15.80;;;7.60;99.90;;;;;;5102404;28;20476;-74
2021/03/23 11:26:03;;;;;;;50.33;17.50;;;7.60;99.90;;;;;;5103520;28;20027;-75
2021/03/23 11:28:30;;;;;;;42.67;18.33;;;7.50;99.90;;;;;;5110487;28;20080;-75
2021/03/23 11:30:57;;;;;;;39.00;16.70;;;7.40;99.90;;;;;;5109723;27;20022;-75
2021/03/23 11:33:22;;;;;;;41.80;17.85;;;7.50;99.90;;;;;;5110426;28;20391;-75
2021/03/23 11:35:49;;;;;;;37.72;16.58;;;7.50;99.90;;;;;;5110173;28;20027;-74
2021/03/23 11:38:16;;;;;;;45.08;18.25;;;7.50;99.90;;;;;;5110605;28;20030;-75
2021/03/23 11:40:42;;;;;;;44.25;18.17;;;7.40;99.90;;;;;;5111117;28;20160;-75
2021/03/23 11:43:21;;;;;;;45.47;19.10;;;7.40;99.90;;;;;;5109962;28;20061;-74
2021/03/23 11:45:47;;;;;;;34.15;15.20;;;7.30;99.90;;;;;;5112876;28;20027;-74
2021/03/23 11:48:17;;;;;;;40.15;16.17;;;7.30;99.90;;;;;;5113639;28;20019;-74
2021/03/23 11:50:46;;;;;;;37.40;17.42;;;7.30;99.90;;;;;;5113419;28;20027;-74
2021/03/23 11:53:12;;;;;;;42.28;16.30;;;7.20;99.90;;;;;;5102120;28;20028;-74
2021/03/23 11:55:41;;;;;;;45.05;16.67;;;7.20;99.90;;;;;;5092151;28;20069;-75
2021/03/23 11:58:08;;;;;;;37.33;16.02;;;7.30;99.90;;;;;;5091159;28;20035;-75
2021/03/23 12:00:34;;;;;;;28.10;15.13;;;7.30;99.90;;;;;;5091577;28;20024;-75
2021/03/23 12:03:03;;;;;;;36.10;16.45;;;7.20;99.90;;;;;;5092847;28;20046;-76
2021/03/23 12:05:29;;;;;;;41.90;16.63;;;7.20;99.90;;;;;;5092191;28;20032;-76
2021/03/23 12:08:25;;;;;;;41.60;17.52;;;7.20;99.90;;;;;;5097614;28;20020;-77
2021/03/23 12:11:04;;;;;;;39.70;16.33;;;7.10;99.90;;;;;;5092753;28;20028;-76
2021/03/23 12:14:08;;;;;;;37.60;16.10;;;7.10;99.90;;;;;;5107651;28;20028;-76
2021/03/23 12:16:42;;;;;;;41.08;16.30;;;7.10;99.90;;;;;;5113128;28;20028;-76
2021/03/23 12:19:09;;;;;;;41.83;17.20;;;7.20;99.90;;;;;;5098477;28;20024;-75
2021/03/23 12:21:35;;;;;;;52.38;17.63;;;7.20;99.90;;;;;;5091296;28;20027;-75
2021/03/23 12:24:02;;;;;;;39.08;16.58;;;7.10;99.90;;;;;;5090468;28;20066;-76
2021/03/23 12:26:28;;;;;;;31.15;17.33;;;7.00;99.90;;;;;;5092556;28;20028;-76
2021/03/23 12:28:53;;;;;;;37.13;17.50;;;7.10;99.90;;;;;;5092309;28;20078;-75
2021/03/23 12:31:19;;;;;;;32.78;18.45;;;7.00;99.90;;;;;;5091114;28;20032;-75
2021/03/23 12:33:46;;;;;;;37.28;17.30;;;7.10;99.90;;;;;;5091716;28;20024;-75
2021/03/23 12:36:14;;;;;;;42.20;17.10;;;7.00;99.90;;;;;;5090902;28;20054;-75
2021/03/23 12:38:43;;;;;;;43.15;17.48;;;7.10;99.90;;;;;;5105655;28;20024;-75
2021/03/23 12:41:14;;;;;;;37.15;18.92;;;7.10;99.90;;;;;;5112498;28;20110;-75
2021/03/23 12:43:41;;;;;;;39.58;18.30;;;7.10;99.90;;;;;;5093711;28;20020;-75
2021/03/23 12:46:07;;;;;;;41.95;18.42;;;7.10;99.90;;;;;;5091826;28;20035;-75
2021/03/23 12:48:34;;;;;;;36.13;18.92;;;7.10;99.90;;;;;;5091942;28;20016;-75
2021/03/23 12:51:00;;;;;;;41.55;19.70;;;7.10;99.90;;;;;;5091948;28;20047;-75
2021/03/23 12:53:25;;;;;;;39.78;20.20;;;7.10;99.90;;;;;;5090796;28;20070;-75
2021/03/23 12:55:55;;;;;;;43.55;19.85;;;7.10;99.90;;;;;;5091162;28;20020;-76
2021/03/23 12:58:28;;;;;;;51.88;22.33;;;7.20;99.90;;;;;;5090802;28;20048;-76
2021/03/23 13:00:55;;;;;;;49.92;21.25;;;7.20;99.90;;;;;;5091988;28;20028;-76
2021/03/23 13:03:20;;;;;;;47.55;19.38;;;7.20;99.90;;;;;;5091862;28;20028;-74
2021/03/23 13:05:49;;;;;;;40.13;20.42;;;7.30;99.90;;;;;;5090985;28;20104;-74
2021/03/23 13:08:26;;;;;;;47.60;20.60;;;7.40;99.90;;;;;;5090656;28;20393;-75